createdAt,value
2022-10-22T00:00:57.342Z,6
2022-10-22T00:02:57.341Z,7
2022-10-22T00:05:57.266Z,6
2022-10-22T00:08:57.298Z,6
2022-10-22T00:10:57.299Z,6
2022-10-22T00:14:57.207Z,5
2022-10-22T00:16:57.220Z,6
2022-10-22T00:18:57.258Z,7
2022-10-22T00:21:57.221Z,6
2022-10-22T00:24:00.319Z,5
2022-10-22T00:25:57.254Z,6
2022-10-22T00:29:57.234Z,7
2022-10-22T00:31:57.250Z,5
2022-10-22T00:33:57.254Z,6
2022-10-22T00:36:57.326Z,5
2022-10-22T00:38:57.255Z,5
2022-10-22T00:40:57.330Z,6
2022-10-22T00:43:57.237Z,5
2022-10-22T00:45:57.245Z,7
2022-10-22T00:47:57.243Z,11
2022-10-22T00:50:57.219Z,4
2022-10-22T00:52:57.264Z,4
2022-10-22T00:54:57.261Z,8
2022-10-22T00:57:57.242Z,4
2022-10-22T00:59:57.253Z,5
2022-10-22T01:02:57.223Z,5
2022-10-22T01:07:57.332Z,6
2022-10-22T01:10:57.322Z,5
2022-10-22T01:14:09.237Z,4
2022-10-22T01:16:57.216Z,4
2022-10-22T01:19:57.418Z,5
2022-10-22T01:22:57.234Z,4
2022-10-22T01:25:02.280Z,5
2022-10-22T01:27:57.261Z,3
2022-10-22T01:29:57.254Z,6
2022-10-22T01:32:57.235Z,4
2022-10-22T01:34:57.245Z,5
2022-10-22T01:37:57.316Z,4
2022-10-22T01:40:57.214Z,5
2022-10-22T01:42:57.232Z,5
2022-10-22T01:45:57.271Z,5
2022-10-22T01:48:57.224Z,4
2022-10-22T01:50:57.279Z,7
2022-10-22T01:53:57.422Z,7
2022-10-22T01:56:57.243Z,7
2022-10-22T01:58:57.234Z,6
2022-10-22T02:00:57.304Z,10
2022-10-22T02:03:57.260Z,5
2022-10-22T02:06:57.255Z,6
2022-10-22T02:08:58.108Z,4
2022-10-22T02:11:57.280Z,10
2022-10-22T02:13:57.306Z,6
2022-10-22T02:16:57.227Z,7
2022-10-22T02:19:57.308Z,5
2022-10-22T02:22:57.227Z,4
2022-10-22T02:25:07.274Z,6
2022-10-22T02:27:57.263Z,4
2022-10-22T02:30:57.240Z,4
2022-10-22T02:33:57.256Z,6
2022-10-22T02:35:57.423Z,4
2022-10-22T02:38:57.267Z,5
2022-10-22T02:40:57.386Z,4
2022-10-22T02:42:57.284Z,4
2022-10-22T02:45:57.333Z,3
2022-10-22T02:47:57.286Z,2
2022-10-22T02:50:57.269Z,3
2022-10-22T02:53:57.267Z,2
2022-10-22T02:56:57.266Z,1
2022-10-22T02:58:57.287Z,1
2022-10-22T03:01:57.271Z,2
2022-10-22T03:04:57.248Z,2
2022-10-22T03:07:57.323Z,1
2022-10-22T03:09:57.269Z,3
2022-10-22T03:11:57.445Z,1
2022-10-22T03:14:57.312Z,1
2022-10-22T03:17:57.388Z,1
2022-10-22T03:20:57.348Z,2
2022-10-22T03:23:57.290Z,2
2022-10-22T03:26:00.434Z,1
2022-10-22T03:27:57.271Z,2
2022-10-22T03:30:57.358Z,1
2022-10-22T03:33:57.398Z,2
2022-10-22T03:36:57.450Z,3
2022-10-22T03:38:57.298Z,3
2022-10-22T03:40:57.307Z,1
2022-10-22T03:42:57.310Z,1
2022-10-22T03:45:57.304Z,2
2022-10-22T03:48:57.310Z,2
2022-10-22T03:51:57.301Z,3
2022-10-22T03:54:57.273Z,12
2022-10-22T03:56:57.424Z,3
2022-10-22T03:59:57.322Z,3
2022-10-22T04:02:57.316Z,3
2022-10-22T04:05:57.306Z,1
2022-10-22T04:08:57.502Z,2
2022-10-22T04:11:57.329Z,2
2022-10-22T04:14:57.271Z,1
2022-10-22T04:16:57.303Z,1
2022-10-22T04:19:57.366Z,4
2022-10-22T04:22:57.303Z,2
2022-10-22T04:25:57.275Z,2
2022-10-22T04:27:57.301Z,3
2022-10-22T04:29:57.310Z,3
2022-10-22T04:32:57.313Z,2
2022-10-22T04:35:57.267Z,2
2022-10-22T04:37:57.725Z,3
2022-10-22T04:40:57.300Z,4
2022-10-22T04:43:57.278Z,2
2022-10-22T04:48:57.297Z,11
2022-10-22T04:50:57.441Z,7
2022-10-22T04:53:57.527Z,2
2022-10-22T04:56:57.581Z,4
2022-10-22T04:58:57.302Z,3
2022-10-22T05:01:57.352Z,5
2022-10-22T05:04:57.310Z,4
2022-10-22T05:07:57.306Z,4
2022-10-22T05:09:57.315Z,4
2022-10-22T05:12:57.335Z,3
2022-10-22T05:15:57.294Z,4
2022-10-22T05:17:57.440Z,6
2022-10-22T05:20:57.283Z,5
2022-10-22T05:23:57.420Z,3
2022-10-22T05:26:57.273Z,2
2022-10-22T05:29:57.373Z,2
2022-10-22T05:32:57.296Z,4
2022-10-22T05:34:57.391Z,3
2022-10-22T05:40:57.292Z,3
2022-10-22T05:43:57.286Z,3
2022-10-22T05:46:57.271Z,3
2022-10-22T05:48:57.289Z,5
2022-10-22T05:51:57.296Z,5
2022-10-22T05:54:57.277Z,5
2022-10-22T05:56:57.283Z,4
2022-10-22T05:59:57.290Z,4
2022-10-22T06:01:57.297Z,3
2022-10-22T06:03:57.733Z,4
2022-10-22T06:06:57.513Z,5
2022-10-22T06:08:57.293Z,4
2022-10-22T06:11:57.566Z,2
2022-10-22T06:14:57.266Z,2
2022-10-22T06:16:57.308Z,5
2022-10-22T06:19:58.319Z,4
2022-10-22T06:21:57.304Z,4
2022-10-22T06:23:57.306Z,5
2022-10-22T06:26:57.473Z,3
2022-10-22T06:29:57.279Z,4
2022-10-22T06:32:57.289Z,4
2022-10-22T06:34:57.322Z,2
2022-10-22T06:37:57.383Z,3
2022-10-22T06:39:57.293Z,4
2022-10-22T06:42:57.376Z,4
2022-10-22T06:45:57.306Z,4
2022-10-22T06:47:57.428Z,4
2022-10-22T06:50:57.389Z,6
2022-10-22T06:53:57.461Z,3
2022-10-22T06:56:57.290Z,6
2022-10-22T06:58:57.740Z,4
2022-10-22T07:01:57.308Z,4
2022-10-22T07:03:57.486Z,9
2022-10-22T07:06:57.309Z,3
2022-10-22T07:09:57.298Z,3
2022-10-22T07:11:57.266Z,6
2022-10-22T07:14:57.358Z,4
2022-10-22T07:17:57.319Z,4
2022-10-22T07:19:57.383Z,7
2022-10-22T07:22:57.342Z,4
2022-10-22T07:25:57.378Z,4
2022-10-22T07:28:57.296Z,6
2022-10-22T07:30:57.600Z,6
2022-10-22T07:33:57.267Z,5
2022-10-22T07:35:57.406Z,5
2022-10-22T07:38:57.288Z,4
2022-10-22T07:40:57.319Z,4
2022-10-22T07:42:57.336Z,4
2022-10-22T07:45:57.377Z,5
2022-10-22T07:47:57.306Z,6
2022-10-22T07:49:58.116Z,5
2022-10-22T07:52:57.518Z,4
2022-10-22T07:55:57.327Z,7
2022-10-22T07:58:57.312Z,7
2022-10-22T08:00:57.495Z,5
2022-10-22T08:03:57.323Z,7
2022-10-22T08:05:57.337Z,7
2022-10-22T08:08:57.646Z,6
2022-10-22T08:11:57.330Z,7
2022-10-22T08:14:57.419Z,7
2022-10-22T08:17:57.328Z,7
2022-10-22T08:20:57.320Z,6
2022-10-22T08:22:57.316Z,9
2022-10-22T08:24:57.604Z,5
2022-10-22T08:27:57.685Z,6
2022-10-22T08:30:57.301Z,4
2022-10-22T08:32:57.308Z,6
2022-10-22T08:35:57.762Z,4
2022-10-22T08:38:57.300Z,4
2022-10-22T08:40:57.426Z,7
2022-10-22T08:43:57.314Z,5
2022-10-22T08:48:57.511Z,5
2022-10-22T08:51:57.361Z,5
2022-10-22T08:53:57.308Z,5
2022-10-22T08:55:57.331Z,4
2022-10-22T08:58:57.309Z,5
2022-10-22T09:00:57.316Z,5
2022-10-22T09:02:57.309Z,5
2022-10-22T09:05:57.332Z,4
2022-10-22T09:08:57.351Z,4
2022-10-22T09:11:57.297Z,4
2022-10-22T09:13:57.308Z,4
2022-10-22T09:15:57.334Z,4
2022-10-22T09:18:57.300Z,4
2022-10-22T09:21:57.353Z,3
2022-10-22T09:23:57.356Z,5
2022-10-22T09:26:57.320Z,4
2022-10-22T09:28:57.406Z,3
2022-10-22T09:33:57.471Z,5
2022-10-22T09:35:57.343Z,5
2022-10-22T09:37:57.336Z,5
2022-10-22T09:39:57.359Z,4
2022-10-22T09:42:57.343Z,4
2022-10-22T09:45:58.007Z,4
2022-10-22T09:48:57.310Z,5
2022-10-22T09:50:57.456Z,5
2022-10-22T09:53:57.313Z,6
2022-10-22T09:55:57.409Z,7
2022-10-22T09:58:57.329Z,9
2022-10-22T10:00:57.354Z,6
2022-10-22T10:02:57.381Z,4
2022-10-22T10:06:00.027Z,9
2022-10-22T10:07:57.350Z,6
2022-10-22T10:10:57.521Z,3
2022-10-22T10:13:57.521Z,5
2022-10-22T10:16:57.329Z,6
2022-10-22T10:18:57.350Z,5
2022-10-22T10:20:57.368Z,6
2022-10-22T10:23:57.388Z,5
2022-10-22T10:25:57.342Z,5
2022-10-22T10:27:57.333Z,6
2022-10-22T10:30:57.569Z,8
2022-10-22T10:33:57.459Z,6
2022-10-22T10:36:58.403Z,7
2022-10-22T10:38:57.376Z,9
2022-10-22T10:40:57.368Z,5
2022-10-22T10:42:57.367Z,7
2022-10-22T10:46:04.055Z,7
2022-10-22T10:48:57.363Z,6
2022-10-22T10:50:57.373Z,7
2022-10-22T10:53:57.367Z,9
2022-10-22T10:56:57.327Z,7
2022-10-22T10:59:57.348Z,7
2022-10-22T11:01:57.436Z,7
2022-10-22T11:04:57.344Z,6
2022-10-22T11:07:05.774Z,9
2022-10-22T11:09:57.350Z,7
2022-10-22T11:11:57.366Z,6
2022-10-22T11:14:57.357Z,9
2022-10-22T11:17:57.367Z,6
2022-10-22T11:19:59.867Z,8
2022-10-22T11:21:57.884Z,8
2022-10-22T11:24:57.358Z,9
2022-10-22T11:28:01.383Z,6
2022-10-22T11:29:57.359Z,5
2022-10-22T11:31:57.494Z,5
2022-10-22T11:34:04.580Z,8
2022-10-22T11:36:57.566Z,14
2022-10-22T11:39:57.387Z,7
2022-10-22T11:41:57.480Z,6
2022-10-22T11:43:57.404Z,6
2022-10-22T11:46:57.592Z,6
2022-10-22T11:48:57.372Z,6
2022-10-22T11:50:57.376Z,6
2022-10-22T11:53:57.480Z,6
2022-10-22T11:55:58.071Z,7
2022-10-22T11:58:57.762Z,7
2022-10-22T12:01:57.348Z,5
2022-10-22T12:03:57.689Z,5
2022-10-22T12:06:57.410Z,5
2022-10-22T12:09:57.455Z,9
2022-10-22T12:11:57.370Z,7
2022-10-22T12:14:57.595Z,5
2022-10-22T12:17:57.359Z,6
2022-10-22T12:19:58.583Z,9
2022-10-22T12:22:57.410Z,5
2022-10-22T12:25:57.344Z,5
2022-10-22T12:27:57.379Z,6
2022-10-22T12:30:57.419Z,8
2022-10-22T12:32:57.384Z,6
2022-10-22T12:35:58.712Z,7
2022-10-22T12:38:57.385Z,9
2022-10-22T12:40:57.846Z,5
2022-10-22T12:42:57.437Z,6
2022-10-22T12:45:57.374Z,4
2022-10-22T12:47:57.484Z,6
2022-10-22T12:50:57.518Z,7
2022-10-22T12:53:57.441Z,5
2022-10-22T12:55:57.378Z,5
2022-10-22T12:57:57.408Z,9
2022-10-22T12:59:57.471Z,6
2022-10-22T13:01:57.743Z,6
2022-10-22T13:04:57.386Z,6
2022-10-22T13:06:57.402Z,4
2022-10-22T13:09:57.372Z,7
2022-10-22T13:11:57.478Z,8
2022-10-22T13:14:57.393Z,5
2022-10-22T13:17:57.355Z,6
2022-10-22T13:19:57.443Z,6
2022-10-22T13:21:58.813Z,5
2022-10-22T13:27:57.413Z,6
2022-10-22T13:30:57.650Z,8
2022-10-22T13:32:57.499Z,5
2022-10-22T13:35:57.821Z,6
2022-10-22T13:37:57.403Z,5
2022-10-22T13:40:58.531Z,5
2022-10-22T13:43:57.418Z,4
2022-10-22T13:46:57.376Z,4
2022-10-22T13:48:57.386Z,6
2022-10-22T13:50:57.399Z,7
2022-10-22T13:52:57.423Z,5
2022-10-22T13:55:57.375Z,5
2022-10-22T13:57:57.453Z,7
2022-10-22T13:59:57.407Z,6
2022-10-22T14:02:57.514Z,6
2022-10-22T14:04:57.389Z,4
2022-10-22T14:07:57.637Z,5
2022-10-22T14:09:57.416Z,7
2022-10-22T14:12:57.576Z,6
2022-10-22T14:17:57.938Z,6
2022-10-22T14:20:57.402Z,6
2022-10-22T14:22:57.828Z,6
2022-10-22T14:25:57.403Z,7
2022-10-22T14:29:09.085Z,8
2022-10-22T14:30:57.396Z,5
2022-10-22T14:33:57.578Z,8
2022-10-22T14:36:57.685Z,8
2022-10-22T14:38:57.497Z,6
2022-10-22T14:41:57.378Z,6
2022-10-22T14:43:57.477Z,6
2022-10-22T14:45:57.432Z,7
2022-10-22T14:48:57.570Z,7
2022-10-22T14:50:57.413Z,6
2022-10-22T14:53:58.461Z,9
2022-10-22T14:56:57.417Z,7
2022-10-22T14:58:57.509Z,5
2022-10-22T15:00:57.492Z,7
2022-10-22T15:02:59.660Z,9
2022-10-22T15:05:57.387Z,7
2022-10-22T15:07:57.477Z,6
2022-10-22T15:10:57.689Z,6
2022-10-22T15:12:57.433Z,6
2022-10-22T15:15:57.565Z,7
2022-10-22T15:18:57.432Z,5
2022-10-22T15:20:58.159Z,10
2022-10-22T15:23:57.446Z,6
2022-10-22T15:25:57.448Z,5
2022-10-22T15:28:00.681Z,6
2022-10-22T15:30:57.473Z,8
2022-10-22T15:34:01.419Z,9
2022-10-22T15:36:12.802Z,8
2022-10-22T15:38:57.749Z,6
2022-10-22T15:41:57.433Z,8
2022-10-22T15:43:57.883Z,6
2022-10-22T15:46:57.441Z,6
2022-10-22T15:48:58.441Z,7
2022-10-22T15:50:57.436Z,8
2022-10-22T15:52:57.449Z,9
2022-10-22T15:55:57.618Z,7
2022-10-22T15:58:57.444Z,10
2022-10-22T16:01:58.142Z,11
2022-10-22T16:04:57.422Z,12
2022-10-22T16:06:57.762Z,9
2022-10-22T16:08:57.520Z,12
2022-10-22T16:11:57.516Z,30
2022-10-22T16:14:57.680Z,15
2022-10-22T16:16:57.535Z,18
2022-10-22T16:18:57.421Z,18
2022-10-22T16:20:57.499Z,16
2022-10-22T16:23:58.255Z,23
2022-10-22T16:26:57.432Z,19
2022-10-22T16:28:57.474Z,20
2022-10-22T16:30:57.489Z,19
2022-10-22T16:33:57.517Z,16
2022-10-22T16:35:57.440Z,25
2022-10-22T16:38:57.554Z,18
2022-10-22T16:40:57.440Z,19
2022-10-22T16:43:57.656Z,19
2022-10-22T16:46:57.448Z,18
2022-10-22T16:48:57.544Z,23
2022-10-22T16:51:57.470Z,22
2022-10-22T16:53:57.715Z,23
2022-10-22T16:55:57.491Z,17
2022-10-22T16:57:57.508Z,15
2022-10-22T17:00:57.766Z,13
2022-10-22T17:04:57.464Z,19
2022-10-22T17:07:57.468Z,17
2022-10-22T17:10:57.455Z,17
2022-10-22T17:13:57.496Z,16
2022-10-22T17:16:57.461Z,15
2022-10-22T17:18:57.516Z,23
2022-10-22T17:21:57.473Z,18
2022-10-22T17:23:57.588Z,15
2022-10-22T17:26:57.535Z,16
2022-10-22T17:29:57.481Z,18
2022-10-22T17:31:57.530Z,15
2022-10-22T17:34:57.468Z,17
2022-10-22T17:36:57.497Z,17
2022-10-22T17:39:57.547Z,19
2022-10-22T17:41:57.500Z,15
2022-10-22T17:44:57.463Z,19
2022-10-22T17:46:57.464Z,15
2022-10-22T17:49:57.776Z,14
2022-10-22T17:51:57.550Z,17
2022-10-22T17:54:57.459Z,17
2022-10-22T17:57:57.473Z,26
2022-10-22T17:59:57.635Z,25
2022-10-22T18:02:57.439Z,21
2022-10-22T18:04:57.432Z,17
2022-10-22T18:06:57.991Z,15
2022-10-22T18:09:57.567Z,15
2022-10-22T18:12:57.485Z,15
2022-10-22T18:14:57.499Z,14
2022-10-22T18:17:57.458Z,16
2022-10-22T18:20:57.450Z,14
2022-10-22T18:22:57.496Z,15
2022-10-22T18:25:57.450Z,20
2022-10-22T18:27:57.522Z,20
2022-10-22T18:30:57.717Z,17
2022-10-22T18:32:57.550Z,16
2022-10-22T18:36:00.753Z,22
2022-10-22T18:37:57.489Z,15
2022-10-22T18:39:57.514Z,21
2022-10-22T18:42:57.464Z,18
2022-10-22T18:44:58.063Z,19
2022-10-22T18:47:57.747Z,21
2022-10-22T18:49:57.472Z,17
2022-10-22T18:52:58.782Z,15
2022-10-22T18:55:57.629Z,18
2022-10-22T18:58:57.534Z,18
2022-10-22T19:00:57.587Z,17
2022-10-22T19:03:58.490Z,15
2022-10-22T19:07:04.033Z,20
2022-10-22T19:09:57.460Z,16
2022-10-22T19:11:57.509Z,17
2022-10-22T19:13:57.506Z,15
2022-10-22T19:16:57.476Z,26
2022-10-22T19:18:57.476Z,30
2022-10-22T19:20:57.515Z,27
2022-10-22T19:22:57.527Z,27
2022-10-22T19:25:57.463Z,47
2022-10-22T19:27:57.468Z,45
2022-10-22T19:30:57.546Z,29
2022-10-22T19:33:59.154Z,19
2022-10-22T19:35:57.541Z,14
2022-10-22T19:38:57.496Z,18
2022-10-22T19:40:57.525Z,16
2022-10-22T19:43:57.474Z,15
2022-10-22T19:46:57.554Z,16
2022-10-22T19:48:57.856Z,21
2022-10-22T19:51:57.494Z,18
2022-10-22T19:54:59.900Z,20
2022-10-22T19:56:57.598Z,19
2022-10-22T20:00:57.548Z,18
2022-10-22T20:02:57.523Z,19
2022-10-22T20:04:57.529Z,23
2022-10-22T20:07:57.495Z,16
2022-10-22T20:09:57.546Z,19
2022-10-22T20:12:57.670Z,21
2022-10-22T20:14:57.506Z,25
2022-10-22T20:16:57.887Z,18
2022-10-22T20:19:57.503Z,21
2022-10-22T20:24:57.474Z,16
2022-10-22T20:26:57.885Z,17
2022-10-22T20:28:59.266Z,20
2022-10-22T20:31:57.687Z,17
2022-10-22T20:34:57.493Z,19
2022-10-22T20:36:57.711Z,18
2022-10-22T20:41:57.516Z,17
2022-10-22T20:44:57.542Z,17
2022-10-22T20:47:00.544Z,21
2022-10-22T20:49:57.513Z,18
2022-10-22T20:51:57.531Z,13
2022-10-22T20:54:57.506Z,18
2022-10-22T20:57:57.548Z,15
2022-10-22T20:59:57.535Z,18
2022-10-22T21:02:57.545Z,13
2022-10-22T21:05:57.527Z,20
2022-10-22T21:08:57.738Z,17
2022-10-22T21:11:57.511Z,22
2022-10-22T21:13:57.519Z,19
2022-10-22T21:16:57.515Z,15
2022-10-22T21:18:57.569Z,17
2022-10-22T21:20:57.540Z,18
2022-10-22T21:23:57.556Z,13
2022-10-22T21:25:57.591Z,19
2022-10-22T21:29:57.543Z,19
2022-10-22T21:32:57.515Z,15
2022-10-22T21:34:57.537Z,20
2022-10-22T21:37:57.531Z,16
2022-10-22T21:39:57.569Z,16
2022-10-22T21:42:57.539Z,16
2022-10-22T21:45:57.955Z,16
2022-10-22T21:48:57.513Z,14
2022-10-22T21:50:57.546Z,17
2022-10-22T21:53:57.531Z,17
2022-10-22T21:55:57.547Z,14
2022-10-22T21:57:57.635Z,15
2022-10-22T22:00:57.603Z,15
2022-10-22T22:03:57.525Z,16
2022-10-22T22:05:57.546Z,13
2022-10-22T22:08:57.550Z,15
2022-10-22T22:10:57.543Z,21
2022-10-22T22:12:57.533Z,23
2022-10-22T22:15:57.550Z,26
2022-10-22T22:18:57.590Z,15
2022-10-22T22:20:57.566Z,15
2022-10-22T22:22:57.534Z,19
2022-10-22T22:25:57.525Z,18
2022-10-22T22:28:57.520Z,16
2022-10-22T22:30:57.572Z,15
2022-10-22T22:33:57.560Z,15
2022-10-22T22:36:57.521Z,14
2022-10-22T22:41:57.787Z,13
2022-10-22T22:44:57.563Z,15
2022-10-22T22:47:57.552Z,14
2022-10-22T22:50:57.543Z,15
2022-10-22T22:52:57.612Z,13
2022-10-22T22:55:57.583Z,16
2022-10-22T22:57:57.909Z,14
2022-10-22T23:00:57.644Z,12
2022-10-22T23:03:57.567Z,15
2022-10-22T23:05:57.601Z,12
2022-10-22T23:08:57.648Z,10
2022-10-22T23:10:57.545Z,16
2022-10-22T23:13:57.590Z,15
2022-10-22T23:15:57.562Z,13
2022-10-22T23:19:13.267Z,14
2022-10-22T23:20:57.563Z,13
2022-10-22T23:23:57.587Z,11
2022-10-22T23:26:57.569Z,12
2022-10-22T23:28:57.593Z,11
2022-10-22T23:31:57.544Z,16
2022-10-22T23:33:57.750Z,12
2022-10-22T23:36:57.578Z,12
2022-10-22T23:39:57.530Z,14
2022-10-22T23:41:57.544Z,11
2022-10-22T23:44:57.569Z,11
2022-10-22T23:47:57.556Z,15
2022-10-22T23:49:57.563Z,11
2022-10-22T23:52:57.548Z,13
2022-10-22T23:54:57.585Z,11
2022-10-22T23:57:57.591Z,12
